»·PEaware :: N102EF KRDD-KCEC

N102EF :: KRDD-KCEC

FLIGHT INFORMATION

Flight Status: Arrived
Operator: Privately registered:
United States
More flights under this callsign
Pilot: Ron R. (25532)
Aircraft: BEECH AIRCRAFT DUKE
(BE60)
More flights by this aircraft type
Origin: KRDD Redding Mun
United States
Destination: KCEC McNamara
United States
More flights between these airports :: More routes between these airports
Route: KREST3 KREST OLJEK
File this flight plan on PilotEdge
Remarks:
Altitude:
(Current/Filed)
12,000ft
Speed:
(Current/Filed)
230kts
Departed: 01-Oct-20 08:09 PM
Arrived: 01-Oct-20 08:51 PM
Distance/Time
Traveled:
116nm/0:41
Distance/Time
To Go:
Arrived

Flight Plot

Page will automatically refresh every two minutes.

Flight plan parsing failed; only flown route is shown


Map Options




Map Legend


Flown Route
Filed Route
Departure Airport
Arrival Airport
Navaid (VOR, NDB)
Fix

Horizontal Profiles

Position Reports

Time Latitude Longitude Heading Altitude Ground
Speed
01-Oct-20 19:50 40.508643 -122.297943 181 505ft 0kts
01-Oct-20 19:51 40.508642 -122.297943 181 505ft 0kts
01-Oct-20 19:52 40.508642 -122.297943 181 505ft 0kts
01-Oct-20 19:53 40.508642 -122.297943 181 505ft 0kts
01-Oct-20 19:54 40.508642 -122.297943 181 505ft 0kts
01-Oct-20 19:55 40.508642 -122.297943 181 505ft 0kts
01-Oct-20 19:56 40.508642 -122.297943 181 505ft 0kts
01-Oct-20 19:57 40.508642 -122.297943 181 505ft 0kts
01-Oct-20 19:58 40.508642 -122.297943 181 505ft 0kts
01-Oct-20 19:59 40.508642 -122.297943 181 505ft 0kts
01-Oct-20 20:00 40.509026 -122.296414 25 505ft 11kts
01-Oct-20 20:01 40.512927 -122.296316 0 505ft 16kts
01-Oct-20 20:02 40.517475 -122.296295 359 505ft 16kts
01-Oct-20 20:03 40.520218 -122.295960 68 505ft 0kts
01-Oct-20 20:04 40.520218 -122.295960 68 505ft 0kts
01-Oct-20 20:05 40.520218 -122.295960 68 505ft 0kts
01-Oct-20 20:06 40.520218 -122.295960 68 505ft 0kts
01-Oct-20 20:07 40.519986 -122.294913 164 505ft 9kts
01-Oct-20 20:08 40.495169 -122.295711 181 1223ft 146kts
01-Oct-20 20:09 40.488498 -122.260106 17 3243ft 155kts
01-Oct-20 20:10 40.532020 -122.266223 356 5270ft 153kts
01-Oct-20 20:11 40.572768 -122.270668 6 7252ft 141kts
01-Oct-20 20:12 40.612147 -122.258988 12 8944ft 153kts
01-Oct-20 20:13 40.655481 -122.245686 12 10461ft 165kts
01-Oct-20 20:14 40.701566 -122.243360 326 11893ft 181kts
01-Oct-20 20:15 40.730179 -122.308873 295 12048ft 228kts
01-Oct-20 20:16 40.760851 -122.386255 296 12063ft 244kts
01-Oct-20 20:17 40.792599 -122.466254 296 12082ft 246kts
01-Oct-20 20:18 40.824276 -122.546190 295 12096ft 246kts
01-Oct-20 20:19 40.855879 -122.626164 295 12115ft 246kts
01-Oct-20 20:20 40.887487 -122.706367 295 12132ft 245kts
01-Oct-20 20:21 40.919050 -122.786695 295 12143ft 245kts
01-Oct-20 20:22 40.950345 -122.866545 295 12151ft 245kts
01-Oct-20 20:23 40.981924 -122.947336 295 12156ft 245kts
01-Oct-20 20:24 41.013254 -123.027705 295 12158ft 245kts
01-Oct-20 20:25 41.044487 -123.108046 295 12158ft 245kts
01-Oct-20 20:26 41.075702 -123.188566 295 12156ft 245kts
01-Oct-20 20:27 41.095607 -123.240027 295 12155ft 245kts
01-Oct-20 20:28 41.126737 -123.320687 295 12135ft 246kts
01-Oct-20 20:29 41.158018 -123.401959 295 12021ft 245kts
01-Oct-20 20:30 41.188936 -123.482515 294 12015ft 245kts
01-Oct-20 20:31 41.219825 -123.563227 294 12009ft 244kts
01-Oct-20 20:32 41.250595 -123.643844 294 12003ft 244kts
01-Oct-20 20:33 41.281279 -123.724440 294 12000ft 244kts
01-Oct-20 20:34 41.311856 -123.805114 294 11430ft 238kts
01-Oct-20 20:35 41.339994 -123.879559 296 9440ft 211kts
01-Oct-20 20:36 41.366570 -123.949710 298 8034ft 198kts
01-Oct-20 20:37 41.390628 -124.013919 297 8012ft 192kts
01-Oct-20 20:38 41.414905 -124.078090 297 8010ft 194kts
01-Oct-20 20:39 41.438940 -124.142230 297 8003ft 192kts
01-Oct-20 20:40 41.462880 -124.206206 297 8002ft 192kts
01-Oct-20 20:41 41.507186 -124.247189 339 6504ft 206kts
01-Oct-20 20:42 41.552247 -124.268420 344 4485ft 140kts
01-Oct-20 20:43 41.585869 -124.281385 345 2509ft 118kts
01-Oct-20 20:44 41.621340 -124.288050 17 2048ft 130kts
01-Oct-20 20:45 41.655386 -124.277336 13 1615ft 125kts
01-Oct-20 20:46 41.689849 -124.266378 13 1610ft 129kts
01-Oct-20 20:47 41.724480 -124.255610 13 1063ft 117kts
01-Oct-20 20:48 41.755773 -124.245737 13 456ft 121kts
01-Oct-20 20:49 41.784869 -124.236635 13 60ft 45kts
01-Oct-20 20:50 41.784596 -124.234942 193 60ft 11kts
01-Oct-20 20:51 41.781132 -124.236007 192 60ft 13kts
01-Oct-20 20:52 41.778354 -124.234857 149 60ft 8kts
01-Oct-20 20:53 41.777599 -124.234161 164 60ft 0kts
01-Oct-20 20:54 41.777599 -124.234161 164 60ft 0kts
01-Oct-20 20:56 41.777599 -124.234161 164 60ft 0kts
01-Oct-20 20:57 41.777599 -124.234161 164 60ft 0kts
01-Oct-20 20:58 41.777599 -124.234161 164 60ft 0kts
01-Oct-20 20:59 41.777599 -124.234161 164 60ft 0kts

Navigation Log

Ident Type
Flight plan parsing failed, navigation log unavailable